sensor_id;sensor_type;location;lat;lon;timestamp;temperature;humidity
22212;DHT22;11275;52.488;13.462;2022-12-10T00:01:48;0.50;99.90
22212;DHT22;11275;52.488;13.462;2022-12-10T00:04:14;0.60;99.90
22212;DHT22;11275;52.488;13.462;2022-12-10T00:06:41;0.60;99.90
22212;DHT22;11275;52.488;13.462;2022-12-10T00:09:10;0.50;99.90
22212;DHT22;11275;52.488;13.462;2022-12-10T00:11:38;0.40;99.90
22212;DHT22;11275;52.488;13.462;2022-12-10T00:14:04;0.40;99.90
22212;DHT22;11275;52.488;13.462;2022-12-10T00:16:30;0.30;99.90
22212;DHT22;11275;52.488;13.462;2022-12-10T00:18:59;0.40;99.90
22212;DHT22;11275;52.488;13.462;2022-12-10T00:21:30;0.40;99.90
22212;DHT22;11275;52.488;13.462;2022-12-10T00:23:56;0.50;99.90
22212;DHT22;11275;52.488;13.462;2022-12-10T00:26:30;0.40;99.90
22212;DHT22;11275;52.488;13.462;2022-12-10T00:28:56;0.40;99.90
22212;DHT22;11275;52.488;13.462;2022-12-10T00:31:25;0.30;99.90
22212;DHT22;11275;52.488;13.462;2022-12-10T00:33:54;0.40;99.90
22212;DHT22;11275;52.488;13.462;2022-12-10T00:36:33;0.40;99.90
22212;DHT22;11275;52.488;13.462;2022-12-10T00:38:59;0.50;99.90
22212;DHT22;11275;52.488;13.462;2022-12-10T00:41:25;0.60;99.90
22212;DHT22;11275;52.488;13.462;2022-12-10T00:43:51;0.50;99.90
22212;DHT22;11275;52.488;13.462;2022-12-10T00:46:17;0.50;99.90
22212;DHT22;11275;52.488;13.462;2022-12-10T00:48:44;0.50;99.90
22212;DHT22;11275;52.488;13.462;2022-12-10T00:51:18;0.40;99.90
22212;DHT22;11275;52.488;13.462;2022-12-10T00:53:45;0.40;99.90
22212;DHT22;11275;52.488;13.462;2022-12-10T00:56:13;0.40;99.90
22212;DHT22;11275;52.488;13.462;2022-12-10T00:58:39;0.50;99.90
22212;DHT22;11275;52.488;13.462;2022-12-10T01:01:12;0.40;99.90
22212;DHT22;11275;52.488;13.462;2022-12-10T01:03:39;0.20;99.90
22212;DHT22;11275;52.488;13.462;2022-12-10T01:06:10;0.10;99.90
22212;DHT22;11275;52.488;13.462;2022-12-10T01:08:36;0.10;99.90
22212;DHT22;11275;52.488;13.462;2022-12-10T01:11:02;0.20;99.90
22212;DHT22;11275;52.488;13.462;2022-12-10T01:13:27;0.20;99.90
22212;DHT22;11275;52.488;13.462;2022-12-10T01:15:53;0.30;99.90
22212;DHT22;11275;52.488;13.462;2022-12-10T01:18:19;0.30;99.90
22212;DHT22;11275;52.488;13.462;2022-12-10T01:20:44;0.30;99.90
22212;DHT22;11275;52.488;13.462;2022-12-10T01:23:10;0.40;99.90
22212;DHT22;11275;52.488;13.462;2022-12-10T01:25:35;0.30;99.90
22212;DHT22;11275;52.488;13.462;2022-12-10T01:28:01;0.40;99.90
22212;DHT22;11275;52.488;13.462;2022-12-10T01:30:27;0.40;99.90
22212;DHT22;11275;52.488;13.462;2022-12-10T01:32:52;0.50;99.90
22212;DHT22;11275;52.488;13.462;2022-12-10T01:35:18;0.50;99.90
22212;DHT22;11275;52.488;13.462;2022-12-10T01:37:44;0.40;99.90
22212;DHT22;11275;52.488;13.462;2022-12-10T01:40:10;0.40;99.90
22212;DHT22;11275;52.488;13.462;2022-12-10T01:42:35;0.40;99.90
22212;DHT22;11275;52.488;13.462;2022-12-10T01:45:07;0.30;99.90
22212;DHT22;11275;52.488;13.462;2022-12-10T01:47:33;0.20;99.90
22212;DHT22;11275;52.488;13.462;2022-12-10T01:49:59;0.20;99.90
22212;DHT22;11275;52.488;13.462;2022-12-10T01:52:26;0.00;99.90
22212;DHT22;11275;52.488;13.462;2022-12-10T01:54:53;0.00;99.90
22212;DHT22;11275;52.488;13.462;2022-12-10T01:57:23;0.00;99.90
22212;DHT22;11275;52.488;13.462;2022-12-10T01:59:53;0.00;99.90
22212;DHT22;11275;52.488;13.462;2022-12-10T02:05:28;-0.10;99.90
22212;DHT22;11275;52.488;13.462;2022-12-10T02:15:41;-0.30;99.90
22212;DHT22;11275;52.488;13.462;2022-12-10T02:18:15;-0.30;99.90
22212;DHT22;11275;52.488;13.462;2022-12-10T02:20:48;-0.30;99.90
22212;DHT22;11275;52.488;13.462;2022-12-10T02:23:28;-0.40;99.90
22212;DHT22;11275;52.488;13.462;2022-12-10T02:31:05;-0.50;99.90
22212;DHT22;11275;52.488;13.462;2022-12-10T02:33:31;-0.50;99.90
22212;DHT22;11275;52.488;13.462;2022-12-10T02:35:59;-0.60;99.90
22212;DHT22;11275;52.488;13.462;2022-12-10T02:38:28;-0.60;99.90
22212;DHT22;11275;52.488;13.462;2022-12-10T02:40:59;-0.60;99.90
22212;DHT22;11275;52.488;13.462;2022-12-10T02:43:27;-0.50;99.90
22212;DHT22;11275;52.488;13.462;2022-12-10T02:45:56;-0.50;99.90
22212;DHT22;11275;52.488;13.462;2022-12-10T02:48:22;-0.40;99.90
22212;DHT22;11275;52.488;13.462;2022-12-10T02:50:48;-0.40;99.90
22212;DHT22;11275;52.488;13.462;2022-12-10T02:53:14;-0.40;99.90
22212;DHT22;11275;52.488;13.462;2022-12-10T02:56:08;-0.30;99.90
22212;DHT22;11275;52.488;13.462;2022-12-10T02:59:16;-0.40;99.90
22212;DHT22;11275;52.488;13.462;2022-12-10T03:04:22;-0.40;99.90
22212;DHT22;11275;52.488;13.462;2022-12-10T03:07:10;-0.40;99.90
22212;DHT22;11275;52.488;13.462;2022-12-10T03:09:43;-0.30;99.90
22212;DHT22;11275;52.488;13.462;2022-12-10T03:12:19;-0.30;99.90
22212;DHT22;11275;52.488;13.462;2022-12-10T03:14:47;-0.30;99.90
22212;DHT22;11275;52.488;13.462;2022-12-10T03:17:13;-0.30;99.90
22212;DHT22;11275;52.488;13.462;2022-12-10T03:19:43;-0.40;99.90
22212;DHT22;11275;52.488;13.462;2022-12-10T03:22:12;-0.50;99.90
22212;DHT22;11275;52.488;13.462;2022-12-10T03:24:39;-0.50;99.90
22212;DHT22;11275;52.488;13.462;2022-12-10T03:27:06;-0.50;99.90
22212;DHT22;11275;52.488;13.462;2022-12-10T03:29:41;-0.50;99.90
22212;DHT22;11275;52.488;13.462;2022-12-10T03:32:08;-0.60;99.90
22212;DHT22;11275;52.488;13.462;2022-12-10T03:34:34;-0.60;99.90
22212;DHT22;11275;52.488;13.462;2022-12-10T03:37:01;-0.60;99.90
22212;DHT22;11275;52.488;13.462;2022-12-10T03:39:27;-0.60;99.90
22212;DHT22;11275;52.488;13.462;2022-12-10T03:41:53;-0.60;99.90
22212;DHT22;11275;52.488;13.462;2022-12-10T03:44:30;-0.60;99.90
22212;DHT22;11275;52.488;13.462;2022-12-10T03:46:56;-0.70;99.90
22212;DHT22;11275;52.488;13.462;2022-12-10T03:49:22;-0.60;99.90
22212;DHT22;11275;52.488;13.462;2022-12-10T03:51:48;-0.50;99.90
22212;DHT22;11275;52.488;13.462;2022-12-10T03:54:13;-0.50;99.90
22212;DHT22;11275;52.488;13.462;2022-12-10T03:56:39;-0.40;99.90
22212;DHT22;11275;52.488;13.462;2022-12-10T03:59:05;-0.40;99.90
22212;DHT22;11275;52.488;13.462;2022-12-10T04:01:30;-0.40;99.90
22212;DHT22;11275;52.488;13.462;2022-12-10T04:03:56;-0.50;99.90
22212;DHT22;11275;52.488;13.462;2022-12-10T04:06:21;-0.40;99.90
22212;DHT22;11275;52.488;13.462;2022-12-10T04:08:48;-0.30;99.90
22212;DHT22;11275;52.488;13.462;2022-12-10T04:11:14;-0.20;99.90
22212;DHT22;11275;52.488;13.462;2022-12-10T04:13:41;-0.20;99.90
22212;DHT22;11275;52.488;13.462;2022-12-10T04:16:26;-0.10;99.90
22212;DHT22;11275;52.488;13.462;2022-12-10T04:18:56;0.00;99.90
22212;DHT22;11275;52.488;13.462;2022-12-10T04:21:22;0.00;99.90
22212;DHT22;11275;52.488;13.462;2022-12-10T04:24:08;0.00;99.90
22212;DHT22;11275;52.488;13.462;2022-12-10T04:26:53;0.10;99.90
22212;DHT22;11275;52.488;13.462;2022-12-10T04:29:21;0.00;99.90
22212;DHT22;11275;52.488;13.462;2022-12-10T04:31:47;0.00;99.90
22212;DHT22;11275;52.488;13.462;2022-12-10T04:34:13;0.10;99.90
22212;DHT22;11275;52.488;13.462;2022-12-10T04:36:39;0.10;99.90
22212;DHT22;11275;52.488;13.462;2022-12-10T04:39:05;0.20;99.90
22212;DHT22;11275;52.488;13.462;2022-12-10T04:41:31;0.20;99.90
22212;DHT22;11275;52.488;13.462;2022-12-10T04:43:57;0.20;99.90
22212;DHT22;11275;52.488;13.462;2022-12-10T04:46:23;0.20;99.90
22212;DHT22;11275;52.488;13.462;2022-12-10T04:48:48;0.30;99.90
22212;DHT22;11275;52.488;13.462;2022-12-10T04:51:14;0.40;99.90
22212;DHT22;11275;52.488;13.462;2022-12-10T04:53:40;0.40;99.90
22212;DHT22;11275;52.488;13.462;2022-12-10T04:56:06;0.40;99.90
22212;DHT22;11275;52.488;13.462;2022-12-10T04:58:32;0.40;99.90
22212;DHT22;11275;52.488;13.462;2022-12-10T05:01:03;0.40;99.90
22212;DHT22;11275;52.488;13.462;2022-12-10T05:03:30;0.40;99.90
22212;DHT22;11275;52.488;13.462;2022-12-10T05:05:56;0.40;99.90
22212;DHT22;11275;52.488;13.462;2022-12-10T05:08:25;0.40;99.90
22212;DHT22;11275;52.488;13.462;2022-12-10T05:10:51;0.40;99.90
22212;DHT22;11275;52.488;13.462;2022-12-10T05:13:16;0.40;99.90
22212;DHT22;11275;52.488;13.462;2022-12-10T05:15:42;0.40;99.90
22212;DHT22;11275;52.488;13.462;2022-12-10T05:18:07;0.50;99.90
22212;DHT22;11275;52.488;13.462;2022-12-10T05:20:33;0.50;99.90
22212;DHT22;11275;52.488;13.462;2022-12-10T05:22:58;0.50;99.90
22212;DHT22;11275;52.488;13.462;2022-12-10T05:25:42;0.50;99.90
22212;DHT22;11275;52.488;13.462;2022-12-10T05:28:19;0.60;99.90
22212;DHT22;11275;52.488;13.462;2022-12-10T05:30:45;0.60;99.90
22212;DHT22;11275;52.488;13.462;2022-12-10T05:33:10;0.60;99.90
22212;DHT22;11275;52.488;13.462;2022-12-10T05:35:36;0.60;99.90
22212;DHT22;11275;52.488;13.462;2022-12-10T05:38:02;0.60;99.90
22212;DHT22;11275;52.488;13.462;2022-12-10T05:40:27;0.60;99.90
22212;DHT22;11275;52.488;13.462;2022-12-10T05:42:53;0.60;99.90
22212;DHT22;11275;52.488;13.462;2022-12-10T05:45:18;0.60;99.90
22212;DHT22;11275;52.488;13.462;2022-12-10T05:47:44;0.60;99.90
22212;DHT22;11275;52.488;13.462;2022-12-10T05:50:10;0.70;99.90
22212;DHT22;11275;52.488;13.462;2022-12-10T05:52:35;0.70;99.90
22212;DHT22;11275;52.488;13.462;2022-12-10T05:55:01;0.60;99.90
22212;DHT22;11275;52.488;13.462;2022-12-10T05:57:26;0.60;99.90
22212;DHT22;11275;52.488;13.462;2022-12-10T05:59:52;0.50;99.90
22212;DHT22;11275;52.488;13.462;2022-12-10T06:02:18;0.40;99.90
22212;DHT22;11275;52.488;13.462;2022-12-10T06:04:43;0.50;99.90
22212;DHT22;11275;52.488;13.462;2022-12-10T06:07:09;0.40;99.90
22212;DHT22;11275;52.488;13.462;2022-12-10T06:09:35;0.30;99.90
22212;DHT22;11275;52.488;13.462;2022-12-10T06:12:01;0.20;99.90
22212;DHT22;11275;52.488;13.462;2022-12-10T06:14:27;0.20;99.90
22212;DHT22;11275;52.488;13.462;2022-12-10T06:16:52;0.20;99.90
22212;DHT22;11275;52.488;13.462;2022-12-10T06:19:18;0.30;99.90
22212;DHT22;11275;52.488;13.462;2022-12-10T06:21:43;0.40;99.90
22212;DHT22;11275;52.488;13.462;2022-12-10T06:24:09;0.40;99.90
22212;DHT22;11275;52.488;13.462;2022-12-10T06:26:35;0.50;99.90
22212;DHT22;11275;52.488;13.462;2022-12-10T06:29:00;0.50;99.90
22212;DHT22;11275;52.488;13.462;2022-12-10T06:31:26;0.50;99.90
22212;DHT22;11275;52.488;13.462;2022-12-10T06:33:52;0.40;99.90
22212;DHT22;11275;52.488;13.462;2022-12-10T06:36:19;0.40;99.90
22212;DHT22;11275;52.488;13.462;2022-12-10T06:38:45;0.40;99.90
22212;DHT22;11275;52.488;13.462;2022-12-10T06:41:13;0.40;99.90
22212;DHT22;11275;52.488;13.462;2022-12-10T06:43:40;0.40;99.90
22212;DHT22;11275;52.488;13.462;2022-12-10T06:46:11;0.50;99.90
22212;DHT22;11275;52.488;13.462;2022-12-10T06:48:37;0.50;99.90
22212;DHT22;11275;52.488;13.462;2022-12-10T06:51:04;0.40;99.90
22212;DHT22;11275;52.488;13.462;2022-12-10T06:53:31;0.40;99.90
22212;DHT22;11275;52.488;13.462;2022-12-10T06:55:58;0.40;99.90
22212;DHT22;11275;52.488;13.462;2022-12-10T06:58:27;0.60;99.90
22212;DHT22;11275;52.488;13.462;2022-12-10T07:00:52;0.60;99.90
22212;DHT22;11275;52.488;13.462;2022-12-10T07:03:24;0.50;99.90
22212;DHT22;11275;52.488;13.462;2022-12-10T07:05:50;0.40;99.90
22212;DHT22;11275;52.488;13.462;2022-12-10T07:08:15;0.50;99.90
22212;DHT22;11275;52.488;13.462;2022-12-10T07:10:43;0.60;99.90
22212;DHT22;11275;52.488;13.462;2022-12-10T07:13:08;0.50;99.90
22212;DHT22;11275;52.488;13.462;2022-12-10T07:15:34;0.40;99.90
22212;DHT22;11275;52.488;13.462;2022-12-10T07:18:00;0.40;99.90
22212;DHT22;11275;52.488;13.462;2022-12-10T07:20:25;0.30;99.90
22212;DHT22;11275;52.488;13.462;2022-12-10T07:22:51;0.40;99.90
22212;DHT22;11275;52.488;13.462;2022-12-10T07:25:16;0.30;99.90
22212;DHT22;11275;52.488;13.462;2022-12-10T07:27:42;0.20;99.90
22212;DHT22;11275;52.488;13.462;2022-12-10T07:30:14;0.20;99.90
22212;DHT22;11275;52.488;13.462;2022-12-10T07:32:40;0.30;99.90
22212;DHT22;11275;52.488;13.462;2022-12-10T07:35:06;0.40;99.90
22212;DHT22;11275;52.488;13.462;2022-12-10T07:37:33;0.40;99.90
22212;DHT22;11275;52.488;13.462;2022-12-10T07:39:58;0.50;99.90
22212;DHT22;11275;52.488;13.462;2022-12-10T07:42:24;0.60;99.90
22212;DHT22;11275;52.488;13.462;2022-12-10T07:44:50;0.60;99.90
22212;DHT22;11275;52.488;13.462;2022-12-10T07:47:16;0.50;99.90
22212;DHT22;11275;52.488;13.462;2022-12-10T07:49:42;0.50;99.90
22212;DHT22;11275;52.488;13.462;2022-12-10T07:52:08;0.50;99.90
22212;DHT22;11275;52.488;13.462;2022-12-10T07:54:34;0.50;99.90
22212;DHT22;11275;52.488;13.462;2022-12-10T07:57:00;0.40;99.90
22212;DHT22;11275;52.488;13.462;2022-12-10T07:59:26;0.50;99.90
22212;DHT22;11275;52.488;13.462;2022-12-10T08:01:52;0.60;99.90
22212;DHT22;11275;52.488;13.462;2022-12-10T08:04:29;0.60;99.90
22212;DHT22;11275;52.488;13.462;2022-12-10T08:06:57;0.70;99.90
22212;DHT22;11275;52.488;13.462;2022-12-10T08:09:23;0.80;99.90
22212;DHT22;11275;52.488;13.462;2022-12-10T08:11:49;0.70;99.90
22212;DHT22;11275;52.488;13.462;2022-12-10T08:14:14;0.70;99.90
22212;DHT22;11275;52.488;13.462;2022-12-10T08:16:40;0.70;99.90
22212;DHT22;11275;52.488;13.462;2022-12-10T08:19:06;0.90;99.90
22212;DHT22;11275;52.488;13.462;2022-12-10T08:21:32;0.90;99.90
22212;DHT22;11275;52.488;13.462;2022-12-10T08:23:58;0.90;99.90
22212;DHT22;11275;52.488;13.462;2022-12-10T08:26:27;1.00;99.90
22212;DHT22;11275;52.488;13.462;2022-12-10T08:28:54;0.90;99.90
22212;DHT22;11275;52.488;13.462;2022-12-10T08:31:21;0.90;99.90
22212;DHT22;11275;52.488;13.462;2022-12-10T08:33:47;1.10;99.90
22212;DHT22;11275;52.488;13.462;2022-12-10T08:36:17;1.20;99.90
22212;DHT22;11275;52.488;13.462;2022-12-10T08:38:43;1.20;99.90
22212;DHT22;11275;52.488;13.462;2022-12-10T08:41:15;1.30;99.90
22212;DHT22;11275;52.488;13.462;2022-12-10T08:43:41;1.30;99.90
22212;DHT22;11275;52.488;13.462;2022-12-10T08:46:08;1.30;99.90
22212;DHT22;11275;52.488;13.462;2022-12-10T08:48:35;1.40;99.90
22212;DHT22;11275;52.488;13.462;2022-12-10T08:51:02;1.40;99.90
22212;DHT22;11275;52.488;13.462;2022-12-10T08:53:27;1.30;99.90
22212;DHT22;11275;52.488;13.462;2022-12-10T08:55:53;1.30;99.90
22212;DHT22;11275;52.488;13.462;2022-12-10T08:58:20;1.20;99.90
22212;DHT22;11275;52.488;13.462;2022-12-10T09:00:47;1.10;99.90
22212;DHT22;11275;52.488;13.462;2022-12-10T09:03:13;1.00;99.90
22212;DHT22;11275;52.488;13.462;2022-12-10T09:05:39;1.00;99.90
22212;DHT22;11275;52.488;13.462;2022-12-10T09:08:08;1.00;99.90
22212;DHT22;11275;52.488;13.462;2022-12-10T09:10:38;1.00;99.90
22212;DHT22;11275;52.488;13.462;2022-12-10T09:13:04;0.90;99.90
22212;DHT22;11275;52.488;13.462;2022-12-10T09:15:30;0.90;99.90
22212;DHT22;11275;52.488;13.462;2022-12-10T09:17:56;0.90;99.90
22212;DHT22;11275;52.488;13.462;2022-12-10T09:20:22;0.90;99.90
22212;DHT22;11275;52.488;13.462;2022-12-10T09:22:48;0.90;99.90
22212;DHT22;11275;52.488;13.462;2022-12-10T09:25:13;0.90;99.90
22212;DHT22;11275;52.488;13.462;2022-12-10T09:27:42;0.90;99.90
22212;DHT22;11275;52.488;13.462;2022-12-10T09:30:09;1.00;99.90
22212;DHT22;11275;52.488;13.462;2022-12-10T09:32:35;1.00;99.90
22212;DHT22;11275;52.488;13.462;2022-12-10T09:35:00;1.00;99.90
22212;DHT22;11275;52.488;13.462;2022-12-10T09:37:26;1.00;99.90
22212;DHT22;11275;52.488;13.462;2022-12-10T09:39:52;1.00;99.90
22212;DHT22;11275;52.488;13.462;2022-12-10T09:42:48;1.00;99.90
22212;DHT22;11275;52.488;13.462;2022-12-10T09:48:57;0.90;99.90
22212;DHT22;11275;52.488;13.462;2022-12-10T09:51:28;0.80;99.90
22212;DHT22;11275;52.488;13.462;2022-12-10T09:53:56;0.80;99.90
22212;DHT22;11275;52.488;13.462;2022-12-10T09:56:38;0.90;99.90
22212;DHT22;11275;52.488;13.462;2022-12-10T09:59:20;1.00;99.90
22212;DHT22;11275;52.488;13.462;2022-12-10T10:01:57;1.00;99.90
22212;DHT22;11275;52.488;13.462;2022-12-10T10:04:28;0.90;99.90
22212;DHT22;11275;52.488;13.462;2022-12-10T10:06:54;0.90;99.90
22212;DHT22;11275;52.488;13.462;2022-12-10T10:09:20;1.00;99.90
22212;DHT22;11275;52.488;13.462;2022-12-10T10:11:49;1.10;99.90
22212;DHT22;11275;52.488;13.462;2022-12-10T10:14:24;1.10;99.90
22212;DHT22;11275;52.488;13.462;2022-12-10T10:17:01;1.10;99.90
22212;DHT22;11275;52.488;13.462;2022-12-10T10:19:30;1.20;99.90
22212;DHT22;11275;52.488;13.462;2022-12-10T10:21:56;1.30;99.90
22212;DHT22;11275;52.488;13.462;2022-12-10T10:24:36;1.20;99.90
22212;DHT22;11275;52.488;13.462;2022-12-10T10:27:29;1.20;99.90
22212;DHT22;11275;52.488;13.462;2022-12-10T10:29:58;1.20;99.90
22212;DHT22;11275;52.488;13.462;2022-12-10T10:32:43;1.30;99.90
22212;DHT22;11275;52.488;13.462;2022-12-10T10:35:32;1.30;99.90
22212;DHT22;11275;52.488;13.462;2022-12-10T10:38:21;1.30;99.90
22212;DHT22;11275;52.488;13.462;2022-12-10T10:40:52;1.40;99.90
22212;DHT22;11275;52.488;13.462;2022-12-10T10:43:24;1.40;99.90
22212;DHT22;11275;52.488;13.462;2022-12-10T10:46:01;1.40;99.90
22212;DHT22;11275;52.488;13.462;2022-12-10T10:48:28;1.50;99.90
22212;DHT22;11275;52.488;13.462;2022-12-10T10:51:24;1.50;99.90
22212;DHT22;11275;52.488;13.462;2022-12-10T10:53:52;1.50;99.90
22212;DHT22;11275;52.488;13.462;2022-12-10T10:56:29;1.50;99.90
22212;DHT22;11275;52.488;13.462;2022-12-10T11:04:13;1.70;99.90
22212;DHT22;11275;52.488;13.462;2022-12-10T11:06:43;1.70;99.90
22212;DHT22;11275;52.488;13.462;2022-12-10T11:09:29;1.70;99.90
22212;DHT22;11275;52.488;13.462;2022-12-10T11:12:03;1.60;99.90
22212;DHT22;11275;52.488;13.462;2022-12-10T11:14:38;1.60;99.90
22212;DHT22;11275;52.488;13.462;2022-12-10T11:19:34;1.50;99.90
22212;DHT22;11275;52.488;13.462;2022-12-10T11:22:19;1.50;99.90
22212;DHT22;11275;52.488;13.462;2022-12-10T11:24:46;1.40;99.90
22212;DHT22;11275;52.488;13.462;2022-12-10T11:44:25;1.40;99.90
22212;DHT22;11275;52.488;13.462;2022-12-10T11:47:01;1.40;99.90
22212;DHT22;11275;52.488;13.462;2022-12-10T11:49:42;1.40;99.90
22212;DHT22;11275;52.488;13.462;2022-12-10T12:00:25;1.30;99.90
22212;DHT22;11275;52.488;13.462;2022-12-10T12:05:42;1.30;99.90
22212;DHT22;11275;52.488;13.462;2022-12-10T12:09:08;1.20;99.90
22212;DHT22;11275;52.488;13.462;2022-12-10T12:13:40;1.10;99.90
22212;DHT22;11275;52.488;13.462;2022-12-10T12:16:14;1.20;99.90
22212;DHT22;11275;52.488;13.462;2022-12-10T12:18:55;1.10;99.90
22212;DHT22;11275;52.488;13.462;2022-12-10T12:21:23;1.20;99.90
22212;DHT22;11275;52.488;13.462;2022-12-10T12:24:20;1.20;99.90
22212;DHT22;11275;52.488;13.462;2022-12-10T12:26:52;1.30;99.90
22212;DHT22;11275;52.488;13.462;2022-12-10T12:29:30;1.30;99.90
22212;DHT22;11275;52.488;13.462;2022-12-10T12:32:07;1.30;99.90
22212;DHT22;11275;52.488;13.462;2022-12-10T12:37:29;1.30;99.90
22212;DHT22;11275;52.488;13.462;2022-12-10T12:40:11;1.30;99.90
22212;DHT22;11275;52.488;13.462;2022-12-10T12:42:54;1.10;99.90
22212;DHT22;11275;52.488;13.462;2022-12-10T12:45:45;1.10;99.90
22212;DHT22;11275;52.488;13.462;2022-12-10T12:48:14;1.00;99.90
22212;DHT22;11275;52.488;13.462;2022-12-10T12:53:24;1.00;99.90
22212;DHT22;11275;52.488;13.462;2022-12-10T13:03:44;1.00;99.90
22212;DHT22;11275;52.488;13.462;2022-12-10T13:06:17;0.90;99.90
22212;DHT22;11275;52.488;13.462;2022-12-10T13:11:35;0.90;99.90
22212;DHT22;11275;52.488;13.462;2022-12-10T13:22:01;1.20;99.90
22212;DHT22;11275;52.488;13.462;2022-12-10T13:40:25;1.40;99.90
22212;DHT22;11275;52.488;13.462;2022-12-10T13:43:20;1.40;99.90
22212;DHT22;11275;52.488;13.462;2022-12-10T13:48:57;1.30;99.90
22212;DHT22;11275;52.488;13.462;2022-12-10T13:54:46;1.30;99.90
22212;DHT22;11275;52.488;13.462;2022-12-10T13:57:43;1.40;99.90
22212;DHT22;11275;52.488;13.462;2022-12-10T14:00:23;1.40;99.90
22212;DHT22;11275;52.488;13.462;2022-12-10T14:03:17;1.40;99.90
22212;DHT22;11275;52.488;13.462;2022-12-10T14:06:20;1.30;99.90
22212;DHT22;11275;52.488;13.462;2022-12-10T14:09:00;1.20;99.90
22212;DHT22;11275;52.488;13.462;2022-12-10T14:11:30;1.20;99.90
22212;DHT22;11275;52.488;13.462;2022-12-10T14:13:58;1.10;99.90
22212;DHT22;11275;52.488;13.462;2022-12-10T14:16:31;1.00;99.90
22212;DHT22;11275;52.488;13.462;2022-12-10T14:19:06;1.00;99.90
22212;DHT22;11275;52.488;13.462;2022-12-10T14:21:35;0.90;99.90
22212;DHT22;11275;52.488;13.462;2022-12-10T14:24:01;1.00;99.90
22212;DHT22;11275;52.488;13.462;2022-12-10T14:26:28;1.00;99.90
22212;DHT22;11275;52.488;13.462;2022-12-10T14:29:19;1.00;99.90
22212;DHT22;11275;52.488;13.462;2022-12-10T14:31:48;1.00;99.90
22212;DHT22;11275;52.488;13.462;2022-12-10T14:34:22;1.10;99.90
22212;DHT22;11275;52.488;13.462;2022-12-10T14:36:52;1.10;99.90
22212;DHT22;11275;52.488;13.462;2022-12-10T14:39:20;1.20;99.90
22212;DHT22;11275;52.488;13.462;2022-12-10T14:41:48;1.00;99.90
22212;DHT22;11275;52.488;13.462;2022-12-10T14:44:16;1.00;99.90
22212;DHT22;11275;52.488;13.462;2022-12-10T14:46:43;1.00;99.90
22212;DHT22;11275;52.488;13.462;2022-12-10T14:49:25;1.10;99.90
22212;DHT22;11275;52.488;13.462;2022-12-10T14:51:51;1.20;99.90
22212;DHT22;11275;52.488;13.462;2022-12-10T14:54:35;1.20;99.90
22212;DHT22;11275;52.488;13.462;2022-12-10T14:57:04;1.10;99.90
22212;DHT22;11275;52.488;13.462;2022-12-10T14:59:50;0.90;99.90
22212;DHT22;11275;52.488;13.462;2022-12-10T15:02:24;0.80;99.90
22212;DHT22;11275;52.488;13.462;2022-12-10T15:04:51;0.90;99.90
22212;DHT22;11275;52.488;13.462;2022-12-10T15:07:20;0.90;99.90
22212;DHT22;11275;52.488;13.462;2022-12-10T15:09:48;1.00;99.90
22212;DHT22;11275;52.488;13.462;2022-12-10T15:12:38;1.00;99.90
22212;DHT22;11275;52.488;13.462;2022-12-10T15:15:19;0.90;99.90
22212;DHT22;11275;52.488;13.462;2022-12-10T15:20:54;0.90;99.90
22212;DHT22;11275;52.488;13.462;2022-12-10T15:26:03;1.00;99.90
22212;DHT22;11275;52.488;13.462;2022-12-10T15:28:35;0.90;99.90
22212;DHT22;11275;52.488;13.462;2022-12-10T15:33:58;1.00;99.90
22212;DHT22;11275;52.488;13.462;2022-12-10T15:39:19;1.20;99.90
22212;DHT22;11275;52.488;13.462;2022-12-10T15:44:36;1.20;99.90
22212;DHT22;11275;52.488;13.462;2022-12-10T15:49:42;1.00;99.90
22212;DHT22;11275;52.488;13.462;2022-12-10T15:52:19;0.90;99.90
22212;DHT22;11275;52.488;13.462;2022-12-10T15:54:49;1.00;99.90
22212;DHT22;11275;52.488;13.462;2022-12-10T15:59:50;0.80;99.90
22212;DHT22;11275;52.488;13.462;2022-12-10T16:05:16;0.80;99.90
22212;DHT22;11275;52.488;13.462;2022-12-10T16:07:43;0.90;99.90
22212;DHT22;11275;52.488;13.462;2022-12-10T16:10:11;1.00;99.90
22212;DHT22;11275;52.488;13.462;2022-12-10T16:12:37;1.00;99.90
22212;DHT22;11275;52.488;13.462;2022-12-10T16:15:05;1.10;99.90
22212;DHT22;11275;52.488;13.462;2022-12-10T16:17:31;1.00;99.90
22212;DHT22;11275;52.488;13.462;2022-12-10T16:22:41;1.00;99.90
22212;DHT22;11275;52.488;13.462;2022-12-10T16:25:07;0.90;99.90
22212;DHT22;11275;52.488;13.462;2022-12-10T16:27:33;1.00;99.90
22212;DHT22;11275;52.488;13.462;2022-12-10T16:30:08;1.00;99.90
22212;DHT22;11275;52.488;13.462;2022-12-10T16:32:35;1.10;99.90
22212;DHT22;11275;52.488;13.462;2022-12-10T16:35:01;1.20;99.90
22212;DHT22;11275;52.488;13.462;2022-12-10T16:37:26;1.20;99.90
22212;DHT22;11275;52.488;13.462;2022-12-10T16:39:52;1.10;99.90
22212;DHT22;11275;52.488;13.462;2022-12-10T16:42:18;1.10;99.90
22212;DHT22;11275;52.488;13.462;2022-12-10T16:44:43;1.00;99.90
22212;DHT22;11275;52.488;13.462;2022-12-10T16:47:12;1.00;99.90
22212;DHT22;11275;52.488;13.462;2022-12-10T16:49:38;0.90;99.90
22212;DHT22;11275;52.488;13.462;2022-12-10T16:52:04;0.80;99.90
22212;DHT22;11275;52.488;13.462;2022-12-10T16:54:30;0.80;99.90
22212;DHT22;11275;52.488;13.462;2022-12-10T16:56:55;0.90;99.90
22212;DHT22;11275;52.488;13.462;2022-12-10T16:59:21;1.00;99.90
22212;DHT22;11275;52.488;13.462;2022-12-10T17:01:50;1.10;99.90
22212;DHT22;11275;52.488;13.462;2022-12-10T17:04:15;1.10;99.90
22212;DHT22;11275;52.488;13.462;2022-12-10T17:06:41;1.10;99.90
22212;DHT22;11275;52.488;13.462;2022-12-10T17:09:07;1.10;99.90
22212;DHT22;11275;52.488;13.462;2022-12-10T17:11:39;1.10;99.90
22212;DHT22;11275;52.488;13.462;2022-12-10T17:14:24;1.20;99.90
22212;DHT22;11275;52.488;13.462;2022-12-10T17:16:55;1.20;99.90
22212;DHT22;11275;52.488;13.462;2022-12-10T17:19:27;1.10;99.90
22212;DHT22;11275;52.488;13.462;2022-12-10T17:21:55;1.10;99.90
22212;DHT22;11275;52.488;13.462;2022-12-10T17:24:21;1.00;99.90
22212;DHT22;11275;52.488;13.462;2022-12-10T17:26:47;1.10;99.90
22212;DHT22;11275;52.488;13.462;2022-12-10T17:29:29;1.10;99.90
22212;DHT22;11275;52.488;13.462;2022-12-10T17:31:55;1.10;99.90
22212;DHT22;11275;52.488;13.462;2022-12-10T17:34:21;1.10;99.90
22212;DHT22;11275;52.488;13.462;2022-12-10T17:36:49;1.10;99.90
22212;DHT22;11275;52.488;13.462;2022-12-10T17:39:17;1.10;99.90
22212;DHT22;11275;52.488;13.462;2022-12-10T17:41:43;0.90;99.90
22212;DHT22;11275;52.488;13.462;2022-12-10T17:44:09;0.90;99.90
22212;DHT22;11275;52.488;13.462;2022-12-10T17:46:35;0.90;99.90
22212;DHT22;11275;52.488;13.462;2022-12-10T17:49:01;0.90;99.90
22212;DHT22;11275;52.488;13.462;2022-12-10T17:51:28;0.90;99.90
22212;DHT22;11275;52.488;13.462;2022-12-10T17:53:53;0.90;99.90
22212;DHT22;11275;52.488;13.462;2022-12-10T17:56:21;0.90;99.90
22212;DHT22;11275;52.488;13.462;2022-12-10T17:58:49;0.90;99.90